Studley, Virginia
Current Conditions -  °F | °C
As of 3:54 PM on Tuesday 21 Oct 2014 (Local Time) from KOFP Reporting Station
Overcast Overcast  
Wind Chill: 68°   Ceiling: 8000
Heat Index: 68°   Visibility: 10mi
Dew Point: 48°   Wind: 6mph
Humidity: 49%   Direction: 230°SW
Pressure: 29.82"   Gusts: NA
Location:  37.68°N, 77.29°W
Report Text: KOFP 211954Z AUTO 23005KT 10SM BKN080 OVC100 20/09 A2982 RMK AO2 SLP095 T02000089
Loading
Personal Weather Stations






























Interactive Weather Map
Tropical Storm Tracking
New forecast layout! Learn more

10-Day Weather Forecast

Advertisements
Track Severe Weather on mobile